Paris, Texas
Current Conditions -  °F | °C
As of 7:15 PM on Saturday 20 Dec 2014 (Local Time) from KPRX Reporting Station
Overcast Overcast  
Wind Chill: 46°   Ceiling: 3100
Heat Index: 46°   Visibility: 3mi
Dew Point: 43°   Wind: 0mph
Humidity: 87%   Direction: NA
Pressure: 30.21"   Gusts: NA
Location:  33.66°N, 95.56°W
Report Text: KPRX 210115Z 00000KT 3SM OVC031 08/06 A3021 RMK AO1
Loading
Personal Weather Stations






























Interactive Weather Map New forecast layout! Learn more

10-Day Weather Forecast

Advertisements
Track Severe Weather on mobile